sensor_id;sensor_type;location;lat;lon;timestamp;temperature;humidity
40932;DHT22;36257;46.052;12.540;2023-09-30T00:01:14;19.60;79.70
40932;DHT22;36257;46.052;12.540;2023-09-30T00:03:40;19.50;80.30
40932;DHT22;36257;46.052;12.540;2023-09-30T00:06:06;19.40;80.70
40932;DHT22;36257;46.052;12.540;2023-09-30T00:08:32;19.40;80.40
40932;DHT22;36257;46.052;12.540;2023-09-30T00:10:57;19.50;80.70
40932;DHT22;36257;46.052;12.540;2023-09-30T00:13:23;19.40;80.50
40932;DHT22;36257;46.052;12.540;2023-09-30T00:15:49;19.40;80.40
40932;DHT22;36257;46.052;12.540;2023-09-30T00:18:15;19.40;80.40
40932;DHT22;36257;46.052;12.540;2023-09-30T00:20:40;19.50;80.10
40932;DHT22;36257;46.052;12.540;2023-09-30T00:23:06;19.50;80.80
40932;DHT22;36257;46.052;12.540;2023-09-30T00:25:32;19.50;80.90
40932;DHT22;36257;46.052;12.540;2023-09-30T00:27:58;19.40;81.10
40932;DHT22;36257;46.052;12.540;2023-09-30T00:30:24;19.30;81.30
40932;DHT22;36257;46.052;12.540;2023-09-30T00:32:49;19.30;81.30
40932;DHT22;36257;46.052;12.540;2023-09-30T00:35:15;19.30;81.50
40932;DHT22;36257;46.052;12.540;2023-09-30T00:37:42;19.30;81.50
40932;DHT22;36257;46.052;12.540;2023-09-30T00:40:08;19.30;81.40
40932;DHT22;36257;46.052;12.540;2023-09-30T00:42:40;19.40;81.40
40932;DHT22;36257;46.052;12.540;2023-09-30T00:45:07;19.40;81.50
40932;DHT22;36257;46.052;12.540;2023-09-30T00:47:35;19.40;81.40
40932;DHT22;36257;46.052;12.540;2023-09-30T00:50:02;19.40;81.40
40932;DHT22;36257;46.052;12.540;2023-09-30T00:52:30;19.50;81.70
40932;DHT22;36257;46.052;12.540;2023-09-30T00:54:57;19.50;81.80
40932;DHT22;36257;46.052;12.540;2023-09-30T00:57:24;19.50;81.80
40932;DHT22;36257;46.052;12.540;2023-09-30T00:59:51;19.50;81.80
40932;DHT22;36257;46.052;12.540;2023-09-30T01:02:20;19.40;81.80
40932;DHT22;36257;46.052;12.540;2023-09-30T01:04:47;19.40;81.60
40932;DHT22;36257;46.052;12.540;2023-09-30T01:07:13;19.50;81.60
40932;DHT22;36257;46.052;12.540;2023-09-30T01:09:38;19.50;81.60
40932;DHT22;36257;46.052;12.540;2023-09-30T01:12:04;19.60;81.60
40932;DHT22;36257;46.052;12.540;2023-09-30T01:14:31;19.60;81.70
40932;DHT22;36257;46.052;12.540;2023-09-30T01:16:57;19.60;81.60
40932;DHT22;36257;46.052;12.540;2023-09-30T01:19:24;19.60;81.80
40932;DHT22;36257;46.052;12.540;2023-09-30T01:21:57;19.70;81.70
40932;DHT22;36257;46.052;12.540;2023-09-30T01:24:27;19.70;81.90
40932;DHT22;36257;46.052;12.540;2023-09-30T01:26:53;19.60;81.90
40932;DHT22;36257;46.052;12.540;2023-09-30T01:29:19;19.60;81.90
40932;DHT22;36257;46.052;12.540;2023-09-30T01:31:44;19.60;82.20
40932;DHT22;36257;46.052;12.540;2023-09-30T01:34:13;19.50;82.50
40932;DHT22;36257;46.052;12.540;2023-09-30T01:36:39;19.50;82.90
40932;DHT22;36257;46.052;12.540;2023-09-30T01:39:05;19.40;83.20
40932;DHT22;36257;46.052;12.540;2023-09-30T01:41:32;19.30;83.50
40932;DHT22;36257;46.052;12.540;2023-09-30T01:43:58;19.20;83.60
40932;DHT22;36257;46.052;12.540;2023-09-30T01:46:24;19.10;83.60
40932;DHT22;36257;46.052;12.540;2023-09-30T01:48:49;19.10;83.30
40932;DHT22;36257;46.052;12.540;2023-09-30T01:51:15;19.10;83.30
40932;DHT22;36257;46.052;12.540;2023-09-30T01:53:41;19.00;83.50
40932;DHT22;36257;46.052;12.540;2023-09-30T01:56:07;18.90;83.80
40932;DHT22;36257;46.052;12.540;2023-09-30T01:58:33;18.80;83.80
40932;DHT22;36257;46.052;12.540;2023-09-30T02:01:05;18.80;83.70
40932;DHT22;36257;46.052;12.540;2023-09-30T02:03:30;18.80;83.70
40932;DHT22;36257;46.052;12.540;2023-09-30T02:05:57;18.80;83.40
40932;DHT22;36257;46.052;12.540;2023-09-30T02:08:23;18.80;83.20
40932;DHT22;36257;46.052;12.540;2023-09-30T02:10:49;18.90;83.00
40932;DHT22;36257;46.052;12.540;2023-09-30T02:13:17;18.80;82.90
40932;DHT22;36257;46.052;12.540;2023-09-30T02:15:43;18.90;83.00
40932;DHT22;36257;46.052;12.540;2023-09-30T02:18:09;18.90;83.00
40932;DHT22;36257;46.052;12.540;2023-09-30T02:20:35;19.00;82.90
40932;DHT22;36257;46.052;12.540;2023-09-30T02:23:05;19.00;82.90
40932;DHT22;36257;46.052;12.540;2023-09-30T02:25:31;19.00;82.80
40932;DHT22;36257;46.052;12.540;2023-09-30T02:27:57;19.00;83.10
40932;DHT22;36257;46.052;12.540;2023-09-30T02:30:23;18.90;83.20
40932;DHT22;36257;46.052;12.540;2023-09-30T02:32:49;18.80;83.60
40932;DHT22;36257;46.052;12.540;2023-09-30T02:35:15;18.80;83.50
40932;DHT22;36257;46.052;12.540;2023-09-30T02:37:41;18.80;83.70
40932;DHT22;36257;46.052;12.540;2023-09-30T02:40:07;18.70;83.90
40932;DHT22;36257;46.052;12.540;2023-09-30T02:42:39;18.60;83.90
40932;DHT22;36257;46.052;12.540;2023-09-30T02:45:06;18.60;84.10
40932;DHT22;36257;46.052;12.540;2023-09-30T02:47:33;18.60;84.40
40932;DHT22;36257;46.052;12.540;2023-09-30T02:50:00;18.60;84.40
40932;DHT22;36257;46.052;12.540;2023-09-30T02:52:26;18.50;84.10
40932;DHT22;36257;46.052;12.540;2023-09-30T02:54:52;18.50;84.10
40932;DHT22;36257;46.052;12.540;2023-09-30T02:57:18;18.50;84.20
40932;DHT22;36257;46.052;12.540;2023-09-30T02:59:44;18.50;84.70
40932;DHT22;36257;46.052;12.540;2023-09-30T03:02:10;18.40;84.80
40932;DHT22;36257;46.052;12.540;2023-09-30T03:04:40;18.40;84.70
40932;DHT22;36257;46.052;12.540;2023-09-30T03:07:08;18.40;84.80
40932;DHT22;36257;46.052;12.540;2023-09-30T03:09:34;18.30;85.20
40932;DHT22;36257;46.052;12.540;2023-09-30T03:12:02;18.40;85.10
40932;DHT22;36257;46.052;12.540;2023-09-30T03:14:28;18.40;85.00
40932;DHT22;36257;46.052;12.540;2023-09-30T03:16:57;18.40;84.80
40932;DHT22;36257;46.052;12.540;2023-09-30T03:19:22;18.50;84.80
40932;DHT22;36257;46.052;12.540;2023-09-30T03:21:48;18.50;84.80
40932;DHT22;36257;46.052;12.540;2023-09-30T03:24:14;18.60;84.70
40932;DHT22;36257;46.052;12.540;2023-09-30T03:26:40;18.60;84.60
40932;DHT22;36257;46.052;12.540;2023-09-30T03:29:07;18.70;84.40
40932;DHT22;36257;46.052;12.540;2023-09-30T03:31:34;18.80;84.30
40932;DHT22;36257;46.052;12.540;2023-09-30T03:34:00;18.80;84.10
40932;DHT22;36257;46.052;12.540;2023-09-30T03:36:26;18.80;84.30
40932;DHT22;36257;46.052;12.540;2023-09-30T03:38:52;18.80;84.20
40932;DHT22;36257;46.052;12.540;2023-09-30T03:41:20;18.90;83.90
40932;DHT22;36257;46.052;12.540;2023-09-30T03:43:45;18.90;83.90
40932;DHT22;36257;46.052;12.540;2023-09-30T03:46:12;19.00;83.80
40932;DHT22;36257;46.052;12.540;2023-09-30T03:48:38;19.00;83.80
40932;DHT22;36257;46.052;12.540;2023-09-30T03:51:17;19.00;83.70
40932;DHT22;36257;46.052;12.540;2023-09-30T03:53:43;19.00;83.80
40932;DHT22;36257;46.052;12.540;2023-09-30T03:56:10;19.10;84.00
40932;DHT22;36257;46.052;12.540;2023-09-30T03:58:42;19.10;83.90
40932;DHT22;36257;46.052;12.540;2023-09-30T04:01:09;19.10;83.90
40932;DHT22;36257;46.052;12.540;2023-09-30T04:03:39;19.10;84.20
40932;DHT22;36257;46.052;12.540;2023-09-30T04:06:05;19.20;84.50
40932;DHT22;36257;46.052;12.540;2023-09-30T04:08:34;19.20;84.80
40932;DHT22;36257;46.052;12.540;2023-09-30T04:11:00;19.10;85.30
40932;DHT22;36257;46.052;12.540;2023-09-30T04:13:26;19.10;85.70
40932;DHT22;36257;46.052;12.540;2023-09-30T04:15:52;19.00;85.60
40932;DHT22;36257;46.052;12.540;2023-09-30T04:18:17;19.00;85.50
40932;DHT22;36257;46.052;12.540;2023-09-30T04:20:45;19.00;85.20
40932;DHT22;36257;46.052;12.540;2023-09-30T04:23:12;19.00;85.30
40932;DHT22;36257;46.052;12.540;2023-09-30T04:25:38;19.00;85.30
40932;DHT22;36257;46.052;12.540;2023-09-30T04:28:05;19.10;85.30
40932;DHT22;36257;46.052;12.540;2023-09-30T04:30:31;19.10;85.30
40932;DHT22;36257;46.052;12.540;2023-09-30T04:32:59;19.00;85.40
40932;DHT22;36257;46.052;12.540;2023-09-30T04:35:24;19.00;85.50
40932;DHT22;36257;46.052;12.540;2023-09-30T04:37:52;19.00;85.40
40932;DHT22;36257;46.052;12.540;2023-09-30T04:40:18;19.00;85.60
40932;DHT22;36257;46.052;12.540;2023-09-30T04:42:47;19.00;85.60
40932;DHT22;36257;46.052;12.540;2023-09-30T04:45:13;19.00;85.60
40932;DHT22;36257;46.052;12.540;2023-09-30T04:47:42;19.00;85.80
40932;DHT22;36257;46.052;12.540;2023-09-30T04:50:10;19.00;85.80
40932;DHT22;36257;46.052;12.540;2023-09-30T04:52:37;18.90;86.00
40932;DHT22;36257;46.052;12.540;2023-09-30T04:55:04;18.90;86.20
40932;DHT22;36257;46.052;12.540;2023-09-30T04:57:30;18.80;86.60
40932;DHT22;36257;46.052;12.540;2023-09-30T04:59:57;18.60;86.80
40932;DHT22;36257;46.052;12.540;2023-09-30T05:02:23;18.60;87.10
40932;DHT22;36257;46.052;12.540;2023-09-30T05:04:49;18.60;86.60
40932;DHT22;36257;46.052;12.540;2023-09-30T05:07:15;18.60;86.60
40932;DHT22;36257;46.052;12.540;2023-09-30T05:09:40;18.50;86.90
40932;DHT22;36257;46.052;12.540;2023-09-30T05:12:07;18.50;86.90
40932;DHT22;36257;46.052;12.540;2023-09-30T05:14:33;18.50;86.80
40932;DHT22;36257;46.052;12.540;2023-09-30T05:16:59;18.50;87.10
40932;DHT22;36257;46.052;12.540;2023-09-30T05:19:25;18.60;86.70
40932;DHT22;36257;46.052;12.540;2023-09-30T05:21:51;18.60;86.70
40932;DHT22;36257;46.052;12.540;2023-09-30T05:24:17;18.50;87.00
40932;DHT22;36257;46.052;12.540;2023-09-30T05:26:46;18.50;86.70
40932;DHT22;36257;46.052;12.540;2023-09-30T05:29:12;18.60;86.60
40932;DHT22;36257;46.052;12.540;2023-09-30T05:31:38;18.60;86.70
40932;DHT22;36257;46.052;12.540;2023-09-30T05:34:04;18.70;86.50
40932;DHT22;36257;46.052;12.540;2023-09-30T05:36:30;18.70;86.60
40932;DHT22;36257;46.052;12.540;2023-09-30T05:38:56;18.70;86.80
40932;DHT22;36257;46.052;12.540;2023-09-30T05:41:21;18.70;87.10
40932;DHT22;36257;46.052;12.540;2023-09-30T05:43:47;18.60;87.30
40932;DHT22;36257;46.052;12.540;2023-09-30T05:46:13;18.60;87.60
40932;DHT22;36257;46.052;12.540;2023-09-30T05:48:39;18.60;87.60
40932;DHT22;36257;46.052;12.540;2023-09-30T05:51:05;18.60;87.30
40932;DHT22;36257;46.052;12.540;2023-09-30T05:53:32;18.70;86.70
40932;DHT22;36257;46.052;12.540;2023-09-30T05:55:58;18.80;86.70
40932;DHT22;36257;46.052;12.540;2023-09-30T05:58:25;18.90;87.00
40932;DHT22;36257;46.052;12.540;2023-09-30T06:00:52;18.90;86.90
40932;DHT22;36257;46.052;12.540;2023-09-30T06:03:18;19.00;86.90
40932;DHT22;36257;46.052;12.540;2023-09-30T06:05:47;19.20;87.30
40932;DHT22;36257;46.052;12.540;2023-09-30T06:08:14;19.20;87.50
40932;DHT22;36257;46.052;12.540;2023-09-30T06:10:43;19.20;87.60
40932;DHT22;36257;46.052;12.540;2023-09-30T06:13:12;19.40;87.20
40932;DHT22;36257;46.052;12.540;2023-09-30T06:15:39;19.50;87.10
40932;DHT22;36257;46.052;12.540;2023-09-30T06:18:06;19.70;87.50
40932;DHT22;36257;46.052;12.540;2023-09-30T06:20:32;19.80;88.20
40932;DHT22;36257;46.052;12.540;2023-09-30T06:22:59;19.90;88.20
40932;DHT22;36257;46.052;12.540;2023-09-30T06:25:26;20.00;88.10
40932;DHT22;36257;46.052;12.540;2023-09-30T06:27:53;20.00;88.40
40932;DHT22;36257;46.052;12.540;2023-09-30T06:30:20;20.00;88.50
40932;DHT22;36257;46.052;12.540;2023-09-30T06:32:47;20.10;88.60
40932;DHT22;36257;46.052;12.540;2023-09-30T06:35:13;20.20;88.50
40932;DHT22;36257;46.052;12.540;2023-09-30T06:37:39;20.40;88.20
40932;DHT22;36257;46.052;12.540;2023-09-30T06:40:06;20.50;89.00
40932;DHT22;36257;46.052;12.540;2023-09-30T06:42:34;20.60;88.40
40932;DHT22;36257;46.052;12.540;2023-09-30T06:45:01;20.90;88.00
40932;DHT22;36257;46.052;12.540;2023-09-30T06:47:27;21.10;87.50
40932;DHT22;36257;46.052;12.540;2023-09-30T06:49:53;21.30;87.30
40932;DHT22;36257;46.052;12.540;2023-09-30T06:52:19;21.50;87.10
40932;DHT22;36257;46.052;12.540;2023-09-30T06:54:45;21.80;86.80
40932;DHT22;36257;46.052;12.540;2023-09-30T06:57:11;22.00;86.40
40932;DHT22;36257;46.052;12.540;2023-09-30T06:59:36;22.30;86.00
40932;DHT22;36257;46.052;12.540;2023-09-30T07:02:03;22.60;84.50
40932;DHT22;36257;46.052;12.540;2023-09-30T07:04:30;22.90;80.10
40932;DHT22;36257;46.052;12.540;2023-09-30T07:06:55;23.10;78.10
40932;DHT22;36257;46.052;12.540;2023-09-30T07:09:21;23.40;76.50
40932;DHT22;36257;46.052;12.540;2023-09-30T07:11:47;23.60;76.10
40932;DHT22;36257;46.052;12.540;2023-09-30T07:14:14;23.70;70.90
40932;DHT22;36257;46.052;12.540;2023-09-30T07:16:40;23.70;73.10
40932;DHT22;36257;46.052;12.540;2023-09-30T07:19:06;24.00;73.30
40932;DHT22;36257;46.052;12.540;2023-09-30T07:21:31;24.20;72.50
40932;DHT22;36257;46.052;12.540;2023-09-30T07:23:57;24.20;70.40
40932;DHT22;36257;46.052;12.540;2023-09-30T07:26:26;24.20;70.90
40932;DHT22;36257;46.052;12.540;2023-09-30T07:28:53;24.40;73.10
40932;DHT22;36257;46.052;12.540;2023-09-30T07:31:19;24.60;71.30
40932;DHT22;36257;46.052;12.540;2023-09-30T07:33:45;24.80;72.80
40932;DHT22;36257;46.052;12.540;2023-09-30T07:36:13;25.00;73.30
40932;DHT22;36257;46.052;12.540;2023-09-30T07:38:38;25.10;73.10
40932;DHT22;36257;46.052;12.540;2023-09-30T07:41:04;25.20;73.00
40932;DHT22;36257;46.052;12.540;2023-09-30T07:43:30;25.50;72.20
40932;DHT22;36257;46.052;12.540;2023-09-30T07:45:56;25.50;72.00
40932;DHT22;36257;46.052;12.540;2023-09-30T07:48:21;25.50;71.30
40932;DHT22;36257;46.052;12.540;2023-09-30T07:50:47;25.60;72.60
40932;DHT22;36257;46.052;12.540;2023-09-30T07:53:13;25.60;73.80
40932;DHT22;36257;46.052;12.540;2023-09-30T07:55:39;25.60;72.50
40932;DHT22;36257;46.052;12.540;2023-09-30T07:58:05;25.50;71.80
40932;DHT22;36257;46.052;12.540;2023-09-30T08:00:33;25.40;74.30
40932;DHT22;36257;46.052;12.540;2023-09-30T08:02:59;25.30;72.40
40932;DHT22;36257;46.052;12.540;2023-09-30T08:05:26;25.40;72.40
40932;DHT22;36257;46.052;12.540;2023-09-30T08:07:52;25.60;73.40
40932;DHT22;36257;46.052;12.540;2023-09-30T08:10:18;25.90;73.10
40932;DHT22;36257;46.052;12.540;2023-09-30T08:12:43;26.10;70.50
40932;DHT22;36257;46.052;12.540;2023-09-30T08:15:13;26.20;70.70
40932;DHT22;36257;46.052;12.540;2023-09-30T08:17:40;26.30;69.30
40932;DHT22;36257;46.052;12.540;2023-09-30T08:20:06;26.20;71.10
40932;DHT22;36257;46.052;12.540;2023-09-30T08:22:34;26.20;70.20
40932;DHT22;36257;46.052;12.540;2023-09-30T08:24:59;26.40;69.50
40932;DHT22;36257;46.052;12.540;2023-09-30T08:27:25;26.60;70.40
40932;DHT22;36257;46.052;12.540;2023-09-30T08:29:52;26.90;72.40
40932;DHT22;36257;46.052;12.540;2023-09-30T08:32:17;27.00;70.50
40932;DHT22;36257;46.052;12.540;2023-09-30T08:34:43;26.90;71.10
40932;DHT22;36257;46.052;12.540;2023-09-30T08:37:09;26.80;71.60
40932;DHT22;36257;46.052;12.540;2023-09-30T08:39:39;26.60;69.70
40932;DHT22;36257;46.052;12.540;2023-09-30T08:42:09;26.40;68.90
40932;DHT22;36257;46.052;12.540;2023-09-30T08:44:37;26.40;69.40
40932;DHT22;36257;46.052;12.540;2023-09-30T08:47:05;26.50;70.20
40932;DHT22;36257;46.052;12.540;2023-09-30T08:49:34;26.30;68.00
40932;DHT22;36257;46.052;12.540;2023-09-30T08:52:02;26.30;69.50
40932;DHT22;36257;46.052;12.540;2023-09-30T08:54:29;26.60;70.10
40932;DHT22;36257;46.052;12.540;2023-09-30T08:56:56;26.70;66.50
40932;DHT22;36257;46.052;12.540;2023-09-30T08:59:23;26.70;67.20
40932;DHT22;36257;46.052;12.540;2023-09-30T09:01:50;26.60;68.60
40932;DHT22;36257;46.052;12.540;2023-09-30T09:04:16;26.80;68.60
40932;DHT22;36257;46.052;12.540;2023-09-30T09:06:42;26.70;67.10
40932;DHT22;36257;46.052;12.540;2023-09-30T09:09:15;26.70;68.20
40932;DHT22;36257;46.052;12.540;2023-09-30T09:11:43;27.00;66.30
40932;DHT22;36257;46.052;12.540;2023-09-30T09:14:08;27.20;66.00
40932;DHT22;36257;46.052;12.540;2023-09-30T09:16:35;27.40;68.20
40932;DHT22;36257;46.052;12.540;2023-09-30T09:19:13;27.60;66.40
40932;DHT22;36257;46.052;12.540;2023-09-30T09:21:53;27.90;67.90
40932;DHT22;36257;46.052;12.540;2023-09-30T09:24:30;27.90;68.40
40932;DHT22;36257;46.052;12.540;2023-09-30T09:27:10;28.00;68.10
40932;DHT22;36257;46.052;12.540;2023-09-30T09:29:37;28.10;65.20
40932;DHT22;36257;46.052;12.540;2023-09-30T09:32:14;28.20;66.40
40932;DHT22;36257;46.052;12.540;2023-09-30T09:34:45;28.50;66.80
40932;DHT22;36257;46.052;12.540;2023-09-30T09:37:24;29.00;64.70
40932;DHT22;36257;46.052;12.540;2023-09-30T09:42:30;29.00;63.10
40932;DHT22;36257;46.052;12.540;2023-09-30T09:44:58;29.10;63.90
40932;DHT22;36257;46.052;12.540;2023-09-30T09:47:24;29.30;62.80
40932;DHT22;36257;46.052;12.540;2023-09-30T09:49:51;29.20;65.20
40932;DHT22;36257;46.052;12.540;2023-09-30T09:52:18;29.40;63.80
40932;DHT22;36257;46.052;12.540;2023-09-30T09:54:45;29.50;62.40
40932;DHT22;36257;46.052;12.540;2023-09-30T09:57:14;29.40;61.70
40932;DHT22;36257;46.052;12.540;2023-09-30T09:59:43;29.30;62.50
40932;DHT22;36257;46.052;12.540;2023-09-30T10:02:13;29.30;62.10
40932;DHT22;36257;46.052;12.540;2023-09-30T10:04:44;29.30;63.00
40932;DHT22;36257;46.052;12.540;2023-09-30T10:07:26;29.40;63.10
40932;DHT22;36257;46.052;12.540;2023-09-30T10:09:53;29.40;63.00
40932;DHT22;36257;46.052;12.540;2023-09-30T10:12:20;29.30;60.90
40932;DHT22;36257;46.052;12.540;2023-09-30T10:14:47;29.30;60.40
40932;DHT22;36257;46.052;12.540;2023-09-30T10:17:13;29.50;61.50
40932;DHT22;36257;46.052;12.540;2023-09-30T10:20:05;29.50;63.70
40932;DHT22;36257;46.052;12.540;2023-09-30T10:22:32;29.50;64.60
40932;DHT22;36257;46.052;12.540;2023-09-30T10:24:59;29.40;62.50
40932;DHT22;36257;46.052;12.540;2023-09-30T10:40:46;30.00;62.40
40932;DHT22;36257;46.052;12.540;2023-09-30T10:43:38;30.20;64.30
40932;DHT22;36257;46.052;12.540;2023-09-30T10:48:52;30.40;61.00
40932;DHT22;36257;46.052;12.540;2023-09-30T10:51:19;30.50;63.40
40932;DHT22;36257;46.052;12.540;2023-09-30T10:53:51;30.80;64.70
40932;DHT22;36257;46.052;12.540;2023-09-30T10:56:20;31.00;60.50
40932;DHT22;36257;46.052;12.540;2023-09-30T10:58:51;31.30;59.00
40932;DHT22;36257;46.052;12.540;2023-09-30T11:01:19;31.30;57.90
40932;DHT22;36257;46.052;12.540;2023-09-30T11:03:46;31.00;58.00
40932;DHT22;36257;46.052;12.540;2023-09-30T11:06:15;31.20;59.80
40932;DHT22;36257;46.052;12.540;2023-09-30T11:08:56;31.40;58.70
40932;DHT22;36257;46.052;12.540;2023-09-30T11:11:39;31.60;58.20
40932;DHT22;36257;46.052;12.540;2023-09-30T11:14:25;31.80;57.60
40932;DHT22;36257;46.052;12.540;2023-09-30T11:16:52;31.90;57.80
40932;DHT22;36257;46.052;12.540;2023-09-30T11:19:18;32.10;58.40
40932;DHT22;36257;46.052;12.540;2023-09-30T11:21:50;32.20;58.70
40932;DHT22;36257;46.052;12.540;2023-09-30T11:24:16;32.30;57.10
40932;DHT22;36257;46.052;12.540;2023-09-30T11:26:43;32.40;57.00
40932;DHT22;36257;46.052;12.540;2023-09-30T11:29:11;32.60;60.00
40932;DHT22;36257;46.052;12.540;2023-09-30T11:31:38;32.80;58.40
40932;DHT22;36257;46.052;12.540;2023-09-30T11:34:04;33.00;56.70
40932;DHT22;36257;46.052;12.540;2023-09-30T11:36:34;33.20;57.10
40932;DHT22;36257;46.052;12.540;2023-09-30T11:39:00;33.50;56.00
40932;DHT22;36257;46.052;12.540;2023-09-30T11:41:36;33.60;57.20
40932;DHT22;36257;46.052;12.540;2023-09-30T11:44:07;33.50;55.70
40932;DHT22;36257;46.052;12.540;2023-09-30T11:46:56;33.50;57.50
40932;DHT22;36257;46.052;12.540;2023-09-30T11:49:32;33.40;54.40
40932;DHT22;36257;46.052;12.540;2023-09-30T11:52:04;33.50;55.10
40932;DHT22;36257;46.052;12.540;2023-09-30T11:54:44;33.30;55.70
40932;DHT22;36257;46.052;12.540;2023-09-30T11:57:15;33.30;57.00
40932;DHT22;36257;46.052;12.540;2023-09-30T11:59:41;33.40;58.00
40932;DHT22;36257;46.052;12.540;2023-09-30T12:02:09;33.30;57.70
40932;DHT22;36257;46.052;12.540;2023-09-30T12:04:36;33.60;58.90
40932;DHT22;36257;46.052;12.540;2023-09-30T12:07:02;33.90;56.40
40932;DHT22;36257;46.052;12.540;2023-09-30T12:09:27;34.00;55.80
40932;DHT22;36257;46.052;12.540;2023-09-30T12:11:54;33.90;56.00
40932;DHT22;36257;46.052;12.540;2023-09-30T12:14:21;33.80;55.30
40932;DHT22;36257;46.052;12.540;2023-09-30T12:16:47;33.70;55.90
40932;DHT22;36257;46.052;12.540;2023-09-30T12:19:20;33.70;56.10
40932;DHT22;36257;46.052;12.540;2023-09-30T12:21:46;33.70;57.50
40932;DHT22;36257;46.052;12.540;2023-09-30T12:24:14;34.00;56.90
40932;DHT22;36257;46.052;12.540;2023-09-30T12:26:45;33.90;56.50
40932;DHT22;36257;46.052;12.540;2023-09-30T12:29:21;33.80;56.10
40932;DHT22;36257;46.052;12.540;2023-09-30T12:31:49;33.80;56.40
40932;DHT22;36257;46.052;12.540;2023-09-30T12:34:16;33.90;58.40
40932;DHT22;36257;46.052;12.540;2023-09-30T12:36:42;33.80;55.30
40932;DHT22;36257;46.052;12.540;2023-09-30T12:39:09;33.70;55.80
40932;DHT22;36257;46.052;12.540;2023-09-30T12:41:42;33.70;57.20
40932;DHT22;36257;46.052;12.540;2023-09-30T12:44:08;33.90;58.60
40932;DHT22;36257;46.052;12.540;2023-09-30T12:46:34;34.20;56.40
40932;DHT22;36257;46.052;12.540;2023-09-30T12:49:03;34.40;56.40
40932;DHT22;36257;46.052;12.540;2023-09-30T12:51:29;34.50;57.10
40932;DHT22;36257;46.052;12.540;2023-09-30T12:53:54;34.50;54.10
40932;DHT22;36257;46.052;12.540;2023-09-30T12:56:21;34.40;55.90
40932;DHT22;36257;46.052;12.540;2023-09-30T12:58:46;34.30;55.60
40932;DHT22;36257;46.052;12.540;2023-09-30T13:01:12;34.30;54.70
40932;DHT22;36257;46.052;12.540;2023-09-30T13:03:38;34.10;54.70
40932;DHT22;36257;46.052;12.540;2023-09-30T13:06:04;34.00;56.80
40932;DHT22;36257;46.052;12.540;2023-09-30T13:08:30;34.20;56.30
40932;DHT22;36257;46.052;12.540;2023-09-30T13:11:05;34.30;55.70
40932;DHT22;36257;46.052;12.540;2023-09-30T13:13:32;34.40;54.80
40932;DHT22;36257;46.052;12.540;2023-09-30T13:16:03;34.50;56.20
40932;DHT22;36257;46.052;12.540;2023-09-30T13:18:34;34.60;53.80
40932;DHT22;36257;46.052;12.540;2023-09-30T13:21:00;34.80;56.50
40932;DHT22;36257;46.052;12.540;2023-09-30T13:23:25;34.80;54.40
40932;DHT22;36257;46.052;12.540;2023-09-30T13:25:53;34.90;54.20
40932;DHT22;36257;46.052;12.540;2023-09-30T13:28:18;34.70;53.20
40932;DHT22;36257;46.052;12.540;2023-09-30T13:30:44;34.60;55.10
40932;DHT22;36257;46.052;12.540;2023-09-30T13:33:11;34.40;54.30
40932;DHT22;36257;46.052;12.540;2023-09-30T13:35:36;34.20;55.40
40932;DHT22;36257;46.052;12.540;2023-09-30T13:38:02;34.30;55.60
40932;DHT22;36257;46.052;12.540;2023-09-30T13:40:29;34.30;54.60
40932;DHT22;36257;46.052;12.540;2023-09-30T13:42:55;34.10;54.30
40932;DHT22;36257;46.052;12.540;2023-09-30T13:45:22;33.90;56.10
40932;DHT22;36257;46.052;12.540;2023-09-30T13:47:48;33.90;55.60
40932;DHT22;36257;46.052;12.540;2023-09-30T13:50:14;33.60;56.00
40932;DHT22;36257;46.052;12.540;2023-09-30T13:52:39;33.50;57.00
40932;DHT22;36257;46.052;12.540;2023-09-30T13:55:05;33.40;56.30
40932;DHT22;36257;46.052;12.540;2023-09-30T13:57:31;33.30;56.00
40932;DHT22;36257;46.052;12.540;2023-09-30T13:59:57;33.10;56.80
40932;DHT22;36257;46.052;12.540;2023-09-30T14:02:23;32.80;57.00
40932;DHT22;36257;46.052;12.540;2023-09-30T14:04:49;32.50;55.60
40932;DHT22;36257;46.052;12.540;2023-09-30T14:07:15;32.30;56.80
40932;DHT22;36257;46.052;12.540;2023-09-30T14:09:44;32.20;57.30
40932;DHT22;36257;46.052;12.540;2023-09-30T14:12:09;31.90;58.90
40932;DHT22;36257;46.052;12.540;2023-09-30T14:14:35;31.70;58.30
40932;DHT22;36257;46.052;12.540;2023-09-30T14:17:01;31.40;60.10
40932;DHT22;36257;46.052;12.540;2023-09-30T14:19:33;31.30;59.80
40932;DHT22;36257;46.052;12.540;2023-09-30T14:21:59;30.90;59.30
40932;DHT22;36257;46.052;12.540;2023-09-30T14:24:25;30.70;59.90
40932;DHT22;36257;46.052;12.540;2023-09-30T14:26:51;30.50;61.20
40932;DHT22;36257;46.052;12.540;2023-09-30T14:29:17;30.40;61.10
40932;DHT22;36257;46.052;12.540;2023-09-30T14:31:42;30.30;61.10
40932;DHT22;36257;46.052;12.540;2023-09-30T14:34:08;30.10;61.00
40932;DHT22;36257;46.052;12.540;2023-09-30T14:36:34;30.00;61.20
40932;DHT22;36257;46.052;12.540;2023-09-30T14:39:00;29.80;61.30
40932;DHT22;36257;46.052;12.540;2023-09-30T14:41:25;29.60;62.80
40932;DHT22;36257;46.052;12.540;2023-09-30T14:43:51;29.60;63.30
40932;DHT22;36257;46.052;12.540;2023-09-30T14:46:17;29.50;62.50
40932;DHT22;36257;46.052;12.540;2023-09-30T14:48:42;29.30;62.70
40932;DHT22;36257;46.052;12.540;2023-09-30T14:51:09;29.20;63.30
40932;DHT22;36257;46.052;12.540;2023-09-30T14:53:35;29.00;61.90
40932;DHT22;36257;46.052;12.540;2023-09-30T14:56:00;28.90;62.90
40932;DHT22;36257;46.052;12.540;2023-09-30T14:58:26;28.90;64.70
40932;DHT22;36257;46.052;12.540;2023-09-30T15:00:52;28.90;66.70
40932;DHT22;36257;46.052;12.540;2023-09-30T15:03:19;28.60;67.30
40932;DHT22;36257;46.052;12.540;2023-09-30T15:05:47;28.50;68.30
40932;DHT22;36257;46.052;12.540;2023-09-30T15:08:13;28.50;69.10
40932;DHT22;36257;46.052;12.540;2023-09-30T15:10:39;28.40;69.80
40932;DHT22;36257;46.052;12.540;2023-09-30T15:13:04;28.30;70.60
40932;DHT22;36257;46.052;12.540;2023-09-30T15:15:30;28.30;70.40
40932;DHT22;36257;46.052;12.540;2023-09-30T15:17:56;28.30;70.70
40932;DHT22;36257;46.052;12.540;2023-09-30T15:20:22;28.30;70.80
40932;DHT22;36257;46.052;12.540;2023-09-30T15:22:47;28.30;71.20
40932;DHT22;36257;46.052;12.540;2023-09-30T15:25:13;28.20;71.20
40932;DHT22;36257;46.052;12.540;2023-09-30T15:27:39;28.20;71.00
40932;DHT22;36257;46.052;12.540;2023-09-30T15:30:05;28.20;71.00
40932;DHT22;36257;46.052;12.540;2023-09-30T15:32:32;28.00;71.60
40932;DHT22;36257;46.052;12.540;2023-09-30T15:34:59;27.90;72.20